• Join FlightAware (Why Join?)
  • Login
  • US Flag 
08:44PM EDT


 

Airport Tracker/Info


-or-


 

Live Flight TrackerFlight Track Log ✈ N8324T ✈ 25-Jun-2013 ✈ KSGF - KSUS

Flight Track Log - Related Links

Times and Time Zones

All times are in EDT time to prevent confusion due to time zone crossing. See the N8324T flight status page for this flight to view local times or setup timezone preferences in your user account.

Time Position Orientation Groundspeed Altitude Reporting Facility
EDT Latitude Longitude Course Direction KTS MPH feet Rate Location/Type
07:22PM 37.2397 -93.3411 57° Northeast 127 146 3,100  Level Kansas City Center
07:23PM 37.2586 -93.3053 56° Northeast 121 139 3,800 660 Climbing Kansas City Center
07:24PM 37.2753 -93.2681 61° Northeast 121 139 4,500 720 Climbing Kansas City Center
07:25PM 37.2953 -93.2231 61° Northeast 122 140 5,300 720 Climbing Kansas City Center
07:26PM 37.3770 -93.1267 52° Northeast  Level FlightAware Approximate
07:26PM 37.3158 -93.1839 57° Northeast 127 146 6,000  Level Kansas City Center
07:27PM 37.4005 -93.0835 57° Northeast  Level FlightAware Approximate
07:27PM 37.3381 -93.1447 54° Northeast 133 153 6,600  Level Kansas City Center
07:28PM 37.3611 -93.1064 53° Northeast 136 157 7,000 180 Climbing Kansas City Center
07:29PM 37.3861 -93.0603 56° Northeast 147 169 7,000  Level Kansas City Center
07:30PM 37.4131 -93.0114 55° Northeast 160 184 7,000  Level Kansas City Center
07:31PM 37.4425 -92.9519 58° Northeast 165 190 7,000  Level Kansas City Center
07:32PM 37.4661 -92.9019 59° Northeast 165 190 7,000  Level Kansas City Center
07:33PM 37.4953 -92.8547 52° Northeast 168 193 7,000  Level Kansas City Center
07:35PM 37.5239 -92.8075 53° Northeast 169 194 7,000  Level Kansas City Center
07:36PM 37.5497 -92.7594 56° Northeast 168 193 7,000  Level Kansas City Center
07:37PM 37.5758 -92.7100 56° Northeast 167 192 7,000  Level Kansas City Center
07:38PM 37.6072 -92.6506 56° Northeast 168 193 7,000  Level Kansas City Center
07:39PM 37.6331 -92.6022 56° Northeast 168 193 7,000  Level Kansas City Center
07:40PM 37.6594 -92.5547 55° Northeast 167 192 7,000  Level Kansas City Center
07:41PM 37.6858 -92.5083 54° Northeast 164 189 7,000  Level Kansas City Center
07:42PM 37.7119 -92.4619 55° Northeast 164 189 7,000  Level Kansas City Center
07:43PM 37.7394 -92.4147 54° Northeast 165 190 7,000  Level Kansas City Center
07:44PM 37.7686 -92.3561 58° Northeast 165 190 7,000  Level Kansas City Center
07:45PM 37.7939 -92.3064 57° Northeast 168 193 7,000  Level Kansas City Center
07:46PM 37.8167 -92.2575 59° Northeast 165 190 7,000  Level Kansas City Center
07:47PM 37.8414 -92.2103 56° Northeast 164 189 7,000  Level Kansas City Center
07:48PM 37.8708 -92.1661 50° Northeast 165 190 7,000  Level Kansas City Center
07:49PM 37.9086 -92.1125 48° Northeast 168 193 7,000  Level Kansas City Center
07:50PM 37.9375 -92.0669 51° Northeast 168 193 7,000  Level Kansas City Center
07:51PM 37.9619 -92.0161 59° Northeast 168 193 7,000  Level Kansas City Center
07:52PM 37.9881 -91.9672 56° Northeast 168 193 7,000  Level Kansas City Center
07:53PM 38.0150 -91.9183 55° Northeast 168 193 7,000  Level Kansas City Center
07:54PM 38.0428 -91.8681 55° Northeast 171 197 7,000  Level Kansas City Center
07:55PM 38.0758 -91.8128 53° Northeast 168 193 7,000  Level Kansas City Center
07:56PM 38.1028 -91.7653 54° Northeast 166 191 7,000  Level Kansas City Center
07:57PM 38.1278 -91.7142 58° Northeast 169 194 7,000  Level Kansas City Center
07:58PM 38.1533 -91.6650 57° Northeast 169 194 7,000  Level Kansas City Center
07:59PM 38.1803 -91.6147 56° Northeast 171 197 7,000  Level Kansas City Center
08:00PM 38.2061 -91.5653 56° Northeast 170 196 7,000  Level Kansas City Center
08:01PM 38.2331 -91.5147 56° Northeast 171 197 7,000 -120 Level Kansas City Center
08:02PM 38.2628 -91.4533 58° Northeast 170 196 6,800 -300 Descending Kansas City Center
08:03PM 38.2886 -91.3994 59° Northeast 176 203 6,500 -300 Descending Kansas City Center
08:04PM 38.3128 -91.3478 59° Northeast 178 205 6,200 -360 Descending Kansas City Center
08:06PM 38.3400 -91.2958 56° Northeast 177 204 5,800 -420 Descending Kansas City Center
08:07PM 38.3650 -91.2436 59° Northeast 174 200 5,400 -420 Descending Kansas City Center
08:08PM 38.3964 -91.1825 57° Northeast 174 200 5,000 -240 Descending Kansas City Center
08:09PM 38.4217 -91.1353 56° Northeast 166 191 5,000  Level Kansas City Center
08:10PM 38.4464 -91.0881 56° Northeast 162 186 5,000 -120 Level Kansas City Center
08:11PM 38.4708 -91.0397 57° Northeast 162 186 4,800 -360 Descending Kansas City Center
08:12PM 38.4975 -90.9875 57° Northeast 173 199 4,300 -420 Descending Kansas City Center
08:13PM 38.5244 -90.9358 56° Northeast 175 201 4,000 -180 Descending Kansas City Center
08:14PM 38.5461 -90.8869 60° Northeast 164 189 4,000 -240 Level Kansas City Center
08:15PM 38.5750 -90.8272 58° Northeast 165 190 3,600 -540 Descending Kansas City Center
08:16PM 38.5997 -90.7742 59° Northeast 169 194 3,000 -540 Descending Kansas City Center
08:17PM 38.6203 -90.7250 62° Northeast 166 191 2,600 -360 Descending Kansas City Center
08:18PM 38.6317 -90.6769 73° East 153 176 2,300 -300 Descending Kansas City Center
08:19PM 38.6406 -90.6325 76° East 141 162 2,100 -300 Descending Kansas City Center
08:20PM 38.6497 -90.5950 73° East 126 145 1,700 -600 Descending Kansas City Center
08:21PM 38.6647 -90.6169 311° West 110 127 900 -600 Descending Kansas City Center
08:22PM 38.6606 -90.6439 259° West 99 114 500 -420 Descending Kansas City Center